createdAt,value
2022-12-11T05:17:31.745Z,13.18
2022-12-11T05:19:58.295Z,12.02
2022-12-11T05:22:24.762Z,11.70
2022-12-11T05:24:51.226Z,13.35
2022-12-11T05:27:17.732Z,11.30
2022-12-11T05:29:44.227Z,12.15
2022-12-11T05:32:10.739Z,13.50
2022-12-11T05:34:37.224Z,12.48
2022-12-11T05:37:03.681Z,12.05
2022-12-11T05:39:30.294Z,13.20
2022-12-11T05:41:56.761Z,12.93
2022-12-11T05:44:26.233Z,12.82
2022-12-11T05:46:52.985Z,12.90
2022-12-11T05:49:20.229Z,12.63
2022-12-11T05:51:47.448Z,11.68
2022-12-11T05:54:14.461Z,13.27
2022-12-11T05:56:40.905Z,12.10
2022-12-11T05:59:08.214Z,14.07
2022-12-11T06:01:41.552Z,13.23
2022-12-11T06:04:09.666Z,13.23
2022-12-11T06:06:36.759Z,15.57
2022-12-11T06:09:04.336Z,12.20
2022-12-11T06:11:32.798Z,13.48
2022-12-11T06:14:01.028Z,14.38
2022-12-11T06:16:27.610Z,12.63
2022-12-11T06:18:57.976Z,12.85
2022-12-11T06:21:27.836Z,13.02
2022-12-11T06:23:55.584Z,12.25
2022-12-11T06:26:22.435Z,12.85
2022-12-11T06:28:49.733Z,12.70
2022-12-11T06:31:17.483Z,12.25
2022-12-11T06:33:47.750Z,11.77
2022-12-11T06:36:21.773Z,13.40
2022-12-11T06:38:48.901Z,12.45
2022-12-11T06:41:15.937Z,12.50
2022-12-11T06:43:42.960Z,11.75
2022-12-11T06:46:16.083Z,12.38
2022-12-11T06:48:43.512Z,13.88
2022-12-11T06:51:15.704Z,13.38
2022-12-11T06:53:42.697Z,13.15
2022-12-11T06:56:12.287Z,13.18
2022-12-11T06:58:39.677Z,11.82
2022-12-11T07:01:24.781Z,12.85
2022-12-11T07:04:00.559Z,15.98
2022-12-11T07:06:28.591Z,13.43
2022-12-11T07:08:55.661Z,16.20
2022-12-11T07:11:25.899Z,16.27
2022-12-11T07:13:52.344Z,14.60
2022-12-11T07:16:19.391Z,15.60
2022-12-11T07:18:50.457Z,14.40
2022-12-11T07:21:18.132Z,16.48
2022-12-11T07:23:44.635Z,17.00
2022-12-11T07:26:14.842Z,17.08
2022-12-11T07:28:42.559Z,17.20
2022-12-11T07:31:14.652Z,17.67
2022-12-11T07:33:42.325Z,17.08
2022-12-11T07:36:11.566Z,18.90
2022-12-11T07:38:38.781Z,16.73
2022-12-11T07:41:08.107Z,16.85
2022-12-11T07:43:35.564Z,17.17
2022-12-11T07:46:04.925Z,17.70
2022-12-11T07:48:34.774Z,19.85
2022-12-11T07:51:12.344Z,16.98
2022-12-11T07:53:38.907Z,16.35
2022-12-11T07:56:05.791Z,16.30
2022-12-11T07:58:36.058Z,16.08
2022-12-11T08:01:02.683Z,14.77
2022-12-11T08:03:29.272Z,14.68
2022-12-11T08:05:56.030Z,15.50
2022-12-11T08:08:23.214Z,16.58
2022-12-11T08:10:49.928Z,15.50
2022-12-11T08:13:16.453Z,17.58
2022-12-11T08:15:42.937Z,15.90
2022-12-11T08:18:09.419Z,17.05
2022-12-11T08:20:38.396Z,16.17
2022-12-11T08:23:05.493Z,14.90
2022-12-11T08:25:32.025Z,16.95
2022-12-11T08:27:58.536Z,16.65
2022-12-11T08:30:25.108Z,15.77
2022-12-11T08:32:51.694Z,16.40
2022-12-11T08:35:18.259Z,17.10
2022-12-11T08:37:44.704Z,16.15
2022-12-11T08:40:12.297Z,15.98
2022-12-11T08:42:38.801Z,16.35
2022-12-11T08:45:06.107Z,16.10
2022-12-11T08:47:32.610Z,15.07
2022-12-11T08:49:59.076Z,15.32
2022-12-11T08:52:25.633Z,15.18
2022-12-11T08:54:52.102Z,16.65
2022-12-11T08:57:18.626Z,15.82
2022-12-11T08:59:45.063Z,16.60
2022-12-11T09:02:12.824Z,16.65
2022-12-11T09:04:39.431Z,16.70
2022-12-11T09:07:05.892Z,15.10
2022-12-11T09:09:32.434Z,14.65
2022-12-11T09:11:59.345Z,15.38
2022-12-11T09:14:25.813Z,15.85
2022-12-11T09:16:52.244Z,17.55
2022-12-11T09:19:18.993Z,17.23
2022-12-11T09:21:45.522Z,15.60
2022-12-11T09:24:13.188Z,16.25
2022-12-11T09:26:40.012Z,18.38
2022-12-11T09:29:08.813Z,16.65
2022-12-11T09:31:37.041Z,16.33
2022-12-11T09:34:11.430Z,15.70
2022-12-11T09:36:42.618Z,15.63
2022-12-11T09:39:10.840Z,14.70
2022-12-11T09:41:47.746Z,17.30
2022-12-11T09:44:30.124Z,16.60
2022-12-11T09:47:15.293Z,15.82
2022-12-11T09:49:44.563Z,14.70
2022-12-11T09:52:20.165Z,15.75
2022-12-11T09:54:52.584Z,15.63
2022-12-11T09:57:38.401Z,15.48
2022-12-11T10:00:11.388Z,15.10
2022-12-11T10:02:50.179Z,15.10
2022-12-11T10:05:27.006Z,15.73
2022-12-11T10:08:05.553Z,14.75
2022-12-11T10:11:00.506Z,16.50
2022-12-11T10:13:42.522Z,14.23
2022-12-11T10:16:34.567Z,14.60
2022-12-11T10:19:01.379Z,15.45
2022-12-11T10:21:39.900Z,15.65
2022-12-11T10:24:34.658Z,16.10
2022-12-11T10:27:19.234Z,16.63
2022-12-11T10:29:47.622Z,17.45
2022-12-11T10:32:24.494Z,18.00
2022-12-11T10:35:05.503Z,17.77
2022-12-11T10:37:32.041Z,17.00
2022-12-11T10:39:58.639Z,18.23
2022-12-11T10:42:25.238Z,16.48
2022-12-11T10:45:03.578Z,14.88
2022-12-11T10:47:30.179Z,14.80
2022-12-11T10:49:59.492Z,16.95
2022-12-11T10:52:31.857Z,16.75
2022-12-11T10:55:38.239Z,15.88
2022-12-11T10:58:06.502Z,16.80
2022-12-11T11:00:37.540Z,15.23
2022-12-11T11:03:22.411Z,15.43
2022-12-11T11:05:50.790Z,15.00
2022-12-11T11:08:25.234Z,14.80
2022-12-11T11:11:00.659Z,15.25
2022-12-11T11:13:31.502Z,13.52
2022-12-11T11:16:01.371Z,14.63
2022-12-11T11:18:30.399Z,14.65
2022-12-11T11:20:57.468Z,15.23
2022-12-11T11:23:25.587Z,16.00
2022-12-11T11:25:55.565Z,16.75
2022-12-11T11:28:26.462Z,17.98
2022-12-11T11:30:58.447Z,17.00
2022-12-11T11:33:25.468Z,17.20
2022-12-11T11:35:54.902Z,18.88
2022-12-11T11:38:24.507Z,17.58
2022-12-11T11:41:21.293Z,18.33
2022-12-11T11:43:55.565Z,17.58
2022-12-11T11:46:27.935Z,18.90
2022-12-11T11:49:12.919Z,18.70
2022-12-11T11:52:01.004Z,19.10
2022-12-11T11:54:37.376Z,19.63
2022-12-11T11:57:43.658Z,18.42
2022-12-11T12:00:30.375Z,19.70
2022-12-11T12:03:05.972Z,17.83
2022-12-11T12:06:04.441Z,18.00
2022-12-11T12:08:51.907Z,18.58
2022-12-11T12:11:28.196Z,17.65
2022-12-11T12:14:51.719Z,18.77
2022-12-11T12:17:43.309Z,20.80
2022-12-11T12:20:34.783Z,18.50
2022-12-11T12:23:25.619Z,17.33
2022-12-11T12:26:25.532Z,16.70
2022-12-11T12:29:06.461Z,17.33
2022-12-11T12:32:05.760Z,20.20
2022-12-11T12:34:41.317Z,21.42
2022-12-11T12:37:35.274Z,16.70
2022-12-11T12:40:16.949Z,16.67
2022-12-11T12:43:01.771Z,16.45
2022-12-11T12:46:13.434Z,16.05
2022-12-11T12:48:40.023Z,14.88
2022-12-11T12:51:06.939Z,14.48
2022-12-11T12:53:36.812Z,15.90
2022-12-11T12:56:05.766Z,15.65
2022-12-11T12:58:35.517Z,14.68
2022-12-11T13:01:27.297Z,15.15
2022-12-11T13:04:05.968Z,13.45
2022-12-11T13:06:44.223Z,12.82
2022-12-11T13:09:21.123Z,12.85
2022-12-11T13:11:59.010Z,11.13
2022-12-11T13:14:31.039Z,12.18
2022-12-11T13:17:22.486Z,11.25
2022-12-11T13:19:53.059Z,12.48
2022-12-11T13:22:24.227Z,10.73
2022-12-11T13:25:01.722Z,11.23
2022-12-11T13:27:44.624Z,10.77
2022-12-11T13:30:14.344Z,10.18
2022-12-11T13:32:55.464Z,9.70
2022-12-11T13:35:22.030Z,9.98
2022-12-11T13:37:51.021Z,10.13
2022-12-11T13:40:22.804Z,9.43
2022-12-11T13:42:51.904Z,10.63
2022-12-11T13:45:52.079Z,9.10
2022-12-11T13:48:53.949Z,9.73
2022-12-11T13:51:22.875Z,10.13
2022-12-11T13:53:49.917Z,9.95
2022-12-11T13:56:20.249Z,10.55
2022-12-11T13:58:48.095Z,11.10
2022-12-11T14:01:23.812Z,10.77
2022-12-11T14:04:15.295Z,10.48
2022-12-11T14:06:42.350Z,10.38
2022-12-11T14:09:09.338Z,10.90
2022-12-11T14:11:43.282Z,10.70
2022-12-11T14:14:40.192Z,9.68
2022-12-11T14:17:13.980Z,11.07
2022-12-11T14:19:47.145Z,11.25
2022-12-11T14:22:20.465Z,9.60
2022-12-11T14:24:58.896Z,10.80
2022-12-11T14:27:26.937Z,10.13
2022-12-11T14:29:53.840Z,11.07
2022-12-11T14:32:44.715Z,10.10
2022-12-11T14:35:24.279Z,10.85
2022-12-11T14:37:58.711Z,44.40
2022-12-11T14:40:30.502Z,15.68
2022-12-11T14:43:02.128Z,10.65
2022-12-11T14:45:39.507Z,9.68
2022-12-11T14:48:17.001Z,9.65
2022-12-11T14:50:53.062Z,12.27
2022-12-11T14:53:33.904Z,10.95
2022-12-11T14:56:05.514Z,10.25
2022-12-11T14:58:38.123Z,10.68
2022-12-11T15:01:26.646Z,10.68
2022-12-11T15:04:15.322Z,11.20
2022-12-11T15:06:47.052Z,12.20
2022-12-11T15:09:19.326Z,12.15
2022-12-11T15:11:47.273Z,11.32
2022-12-11T15:14:16.283Z,10.38
2022-12-11T15:16:43.184Z,11.38
2022-12-11T15:19:20.342Z,11.25
2022-12-11T15:21:47.612Z,12.10
2022-12-11T15:24:30.496Z,11.88
2022-12-11T15:26:59.743Z,11.23
2022-12-11T15:29:38.267Z,11.63
2022-12-11T15:32:18.971Z,11.10
2022-12-11T15:34:52.990Z,11.23
2022-12-11T15:37:36.128Z,12.82
2022-12-11T15:40:04.705Z,11.40
2022-12-11T15:42:34.319Z,11.60
2022-12-11T15:45:01.458Z,11.60
2022-12-11T15:47:30.540Z,13.40
2022-12-11T15:50:00.022Z,11.65
2022-12-11T15:52:26.565Z,12.65
2022-12-11T15:54:54.225Z,12.90
2022-12-11T15:57:24.051Z,12.32
2022-12-11T15:59:54.838Z,14.03
2022-12-11T16:02:21.550Z,13.73
2022-12-11T16:04:48.031Z,14.50
2022-12-11T16:07:33.535Z,13.35
2022-12-11T16:10:00.059Z,13.90
2022-12-11T16:12:26.595Z,13.45
2022-12-11T16:14:53.124Z,13.98
2022-12-11T16:17:19.884Z,12.73
2022-12-11T16:19:46.346Z,12.98
2022-12-11T16:22:14.107Z,11.82
2022-12-11T16:24:41.204Z,13.68
2022-12-11T16:27:12.161Z,12.57
2022-12-11T16:29:43.386Z,12.02
2022-12-11T16:32:10.281Z,10.38
2022-12-11T16:34:38.070Z,10.82
2022-12-11T16:37:06.800Z,11.65
2022-12-11T16:39:34.525Z,11.20
2022-12-11T16:42:01.046Z,12.05
2022-12-11T16:44:27.520Z,11.65
2022-12-11T16:46:54.492Z,12.70
2022-12-11T16:49:21.881Z,10.88
2022-12-11T16:51:51.263Z,12.80
2022-12-11T16:54:21.342Z,10.45
2022-12-11T16:56:51.340Z,10.57
2022-12-11T16:59:18.060Z,11.00
2022-12-11T17:01:45.103Z,11.15
2022-12-11T17:04:11.724Z,12.77
2022-12-11T17:06:38.212Z,12.32
2022-12-11T17:09:04.797Z,12.65
2022-12-11T17:11:31.308Z,11.80
2022-12-11T17:13:59.495Z,13.40
2022-12-11T17:16:30.239Z,13.25
2022-12-11T17:18:57.589Z,12.93
2022-12-11T17:21:24.358Z,14.02
2022-12-11T17:23:51.474Z,17.55
2022-12-11T17:26:28.721Z,17.10
2022-12-11T17:28:57.021Z,17.80
2022-12-11T17:31:24.072Z,16.77
2022-12-11T17:33:51.623Z,17.13
2022-12-11T17:36:20.895Z,17.75
2022-12-11T17:38:48.684Z,18.90
2022-12-11T17:41:20.445Z,20.88
2022-12-11T17:43:48.726Z,16.80
2022-12-11T17:46:15.395Z,15.13
2022-12-11T17:48:42.020Z,15.55
2022-12-11T17:51:13.511Z,15.73
2022-12-11T17:54:31.669Z,16.80
2022-12-11T17:57:09.574Z,15.45
2022-12-11T17:59:39.338Z,16.92
2022-12-11T18:02:08.847Z,17.17
2022-12-11T18:04:49.754Z,17.05
2022-12-11T18:08:02.676Z,18.02
2022-12-11T18:10:40.531Z,20.02
2022-12-11T18:13:07.517Z,15.98
2022-12-11T18:15:49.923Z,16.73
2022-12-11T18:18:16.619Z,16.05
2022-12-11T18:21:55.533Z,16.65
2022-12-11T18:24:31.626Z,14.95
2022-12-11T18:27:12.252Z,15.15
2022-12-11T18:29:39.439Z,16.10
2022-12-11T18:32:06.555Z,15.50
2022-12-11T18:34:35.893Z,17.10
2022-12-11T18:37:02.523Z,16.13
2022-12-11T18:39:29.300Z,16.13
2022-12-11T18:42:30.698Z,16.25
2022-12-11T18:44:46.956Z,15.77
2022-12-11T18:47:13.638Z,18.17
2022-12-11T18:49:42.376Z,18.85
2022-12-11T18:52:09.351Z,16.35
2022-12-11T18:55:01.269Z,16.58
2022-12-11T18:57:30.853Z,17.63
2022-12-11T19:00:02.417Z,15.85
2022-12-11T19:02:29.130Z,15.90
2022-12-11T19:04:58.606Z,16.08
2022-12-11T19:07:25.459Z,16.92
2022-12-11T19:10:19.095Z,16.88
2022-12-11T19:12:45.846Z,15.48
2022-12-11T19:15:13.035Z,17.05
2022-12-11T19:17:40.000Z,17.25
2022-12-11T19:20:32.253Z,16.98
2022-12-11T19:22:56.317Z,17.80
2022-12-11T19:25:23.281Z,16.45
2022-12-11T19:27:51.125Z,17.75
2022-12-11T19:30:18.212Z,17.60
2022-12-11T19:32:46.786Z,17.45
2022-12-11T19:35:15.090Z,16.48
2022-12-11T19:37:42.626Z,18.05
2022-12-11T19:40:10.416Z,17.58
2022-12-11T19:42:36.937Z,16.23
2022-12-11T19:45:06.164Z,19.33
2022-12-11T19:47:36.255Z,17.10
2022-12-11T19:50:03.925Z,18.02
2022-12-11T19:52:30.878Z,15.55
2022-12-11T19:55:02.071Z,15.82
2022-12-11T19:57:28.965Z,18.63
2022-12-11T19:59:57.467Z,16.42
2022-12-11T20:02:24.512Z,17.08
2022-12-11T20:04:51.307Z,17.00
2022-12-11T20:07:18.172Z,17.52
2022-12-11T20:09:45.288Z,15.82
2022-12-11T20:12:12.561Z,19.33
2022-12-11T20:14:39.327Z,15.73
2022-12-11T20:17:12.341Z,15.73
2022-12-11T20:19:39.896Z,18.92
2022-12-11T20:22:06.560Z,15.38
2022-12-11T20:24:33.511Z,16.15
2022-12-11T20:27:00.179Z,15.52
2022-12-11T20:29:28.159Z,17.48
2022-12-11T20:31:55.011Z,17.38
2022-12-11T20:34:21.913Z,16.02
2022-12-11T20:36:48.900Z,16.88
2022-12-11T20:39:15.978Z,16.38
2022-12-11T20:41:43.208Z,16.98
2022-12-11T20:44:10.001Z,15.15
2022-12-11T20:46:36.702Z,17.27
2022-12-11T20:49:03.454Z,17.95
2022-12-11T20:51:31.498Z,13.80
2022-12-11T20:53:59.837Z,15.93
2022-12-11T20:56:31.569Z,16.10
2022-12-11T20:59:00.135Z,15.57
2022-12-11T21:01:31.879Z,14.88
2022-12-11T21:03:59.762Z,15.40
2022-12-11T21:06:31.587Z,15.70
2022-12-11T21:09:00.717Z,13.93
2022-12-11T21:11:28.296Z,15.32
2022-12-11T21:13:55.453Z,17.42
2022-12-11T21:16:22.994Z,15.73
2022-12-11T21:18:49.727Z,15.57
2022-12-11T21:21:17.040Z,17.00
2022-12-11T21:23:44.363Z,16.05
2022-12-11T21:26:11.760Z,15.25
2022-12-11T21:28:38.652Z,14.77
2022-12-11T21:31:09.115Z,14.27
2022-12-11T21:33:36.365Z,15.63
2022-12-11T21:36:08.770Z,17.00
2022-12-11T21:38:36.145Z,16.73
2022-12-11T21:41:11.606Z,14.73
2022-12-11T21:43:54.587Z,16.73
2022-12-11T21:46:27.999Z,17.63
2022-12-11T21:48:54.804Z,17.40
2022-12-11T21:51:36.152Z,17.38
2022-12-11T21:54:06.605Z,18.10
2022-12-11T21:56:34.284Z,16.58
2022-12-11T21:59:01.760Z,18.65
2022-12-11T22:01:33.416Z,17.45
2022-12-11T22:04:15.181Z,17.55
2022-12-11T22:06:47.132Z,16.70
2022-12-11T22:09:19.207Z,16.50
2022-12-11T22:11:47.223Z,17.20
2022-12-11T22:14:16.955Z,17.38
2022-12-11T22:16:45.519Z,15.30
2022-12-11T22:19:12.448Z,18.73
2022-12-11T22:21:39.100Z,17.40
2022-12-11T22:24:05.909Z,17.52
2022-12-11T22:26:32.496Z,18.38
2022-12-11T22:28:59.166Z,17.00
2022-12-11T22:31:26.671Z,18.15
2022-12-11T22:33:53.921Z,17.42
2022-12-11T22:36:22.075Z,14.75
2022-12-11T22:38:48.925Z,17.15
2022-12-11T22:41:24.311Z,18.52
2022-12-11T22:43:51.284Z,15.98
2022-12-11T22:46:20.884Z,19.25
2022-12-11T22:48:51.646Z,18.35
2022-12-11T22:51:18.368Z,16.45
2022-12-11T22:53:45.332Z,17.52
2022-12-11T22:56:14.004Z,16.35
2022-12-11T22:58:40.797Z,17.67
